Carmen, Arizona
Current Conditions -  °F | °C
As of 10:54 AM on Saturday 20 Dec 2014 (Local Time) from KOLS Reporting Station
Clear Clear  
Wind Chill: 51°   Ceiling: Unl
Heat Index: 51°   Visibility: 10mi
Dew Point: 31°   Wind: 5mph
Humidity: 46%   Direction: NA
Pressure: 30.15"   Gusts: NA
Location:  31.6134°N, 110.959°W
Report Text: KOLS 201754Z AUTO VRB04KT 10SM CLR 11/M01 A3015 RMK AO2 SLP192 T01061006 10106 21011 50007
Loading
Personal Weather Stations






























Interactive Weather Map New forecast layout! Learn more

10-Day Weather Forecast

Advertisements
Track Severe Weather on mobile